sensor_id;sensor_type;location;lat;lon;timestamp;P1;durP1;ratioP1;P2;durP2;ratioP2
72132;SDS011;60008;50.826;6.896;2023-09-12T00:01:04;9.70;;;6.03;;
72132;SDS011;60008;50.826;6.896;2023-09-12T00:03:58;12.63;;;5.75;;
72132;SDS011;60008;50.826;6.896;2023-09-12T00:06:50;12.25;;;5.65;;
72132;SDS011;60008;50.826;6.896;2023-09-12T00:09:35;12.67;;;5.33;;
72132;SDS011;60008;50.826;6.896;2023-09-12T00:12:34;9.30;;;4.75;;
72132;SDS011;60008;50.826;6.896;2023-09-12T00:15:33;10.07;;;5.05;;
72132;SDS011;60008;50.826;6.896;2023-09-12T00:18:27;10.60;;;4.93;;
72132;SDS011;60008;50.826;6.896;2023-09-12T00:21:13;10.88;;;5.20;;
72132;SDS011;60008;50.826;6.896;2023-09-12T00:24:05;9.33;;;4.50;;
72132;SDS011;60008;50.826;6.896;2023-09-12T00:26:50;7.35;;;4.57;;
72132;SDS011;60008;50.826;6.896;2023-09-12T00:29:42;9.52;;;4.80;;
72132;SDS011;60008;50.826;6.896;2023-09-12T00:32:28;10.13;;;4.68;;
72132;SDS011;60008;50.826;6.896;2023-09-12T00:35:19;12.50;;;4.60;;
72132;SDS011;60008;50.826;6.896;2023-09-12T00:38:11;9.57;;;4.63;;
72132;SDS011;60008;50.826;6.896;2023-09-12T00:41:03;10.23;;;4.32;;
72132;SDS011;60008;50.826;6.896;2023-09-12T00:43:48;11.95;;;4.55;;
72132;SDS011;60008;50.826;6.896;2023-09-12T00:46:40;8.45;;;4.28;;
72132;SDS011;60008;50.826;6.896;2023-09-12T00:49:26;7.82;;;4.88;;
72132;SDS011;60008;50.826;6.896;2023-09-12T00:52:20;6.70;;;4.20;;
72132;SDS011;60008;50.826;6.896;2023-09-12T00:55:06;8.90;;;4.53;;
72132;SDS011;60008;50.826;6.896;2023-09-12T00:57:58;11.05;;;4.43;;
72132;SDS011;60008;50.826;6.896;2023-09-12T01:00:44;10.15;;;4.60;;
72132;SDS011;60008;50.826;6.896;2023-09-12T01:03:36;8.13;;;4.75;;
72132;SDS011;60008;50.826;6.896;2023-09-12T01:06:28;8.17;;;4.70;;
72132;SDS011;60008;50.826;6.896;2023-09-12T01:09:20;8.98;;;5.03;;
72132;SDS011;60008;50.826;6.896;2023-09-12T01:12:05;13.38;;;4.53;;
72132;SDS011;60008;50.826;6.896;2023-09-12T01:14:57;8.57;;;5.00;;
72132;SDS011;60008;50.826;6.896;2023-09-12T01:17:43;12.82;;;5.30;;
72132;SDS011;60008;50.826;6.896;2023-09-12T01:20:35;8.57;;;4.97;;
72132;SDS011;60008;50.826;6.896;2023-09-12T01:27:17;8.55;;;4.88;;
72132;SDS011;60008;50.826;6.896;2023-09-12T01:30:10;9.57;;;4.80;;
72132;SDS011;60008;50.826;6.896;2023-09-12T01:32:56;11.23;;;4.90;;
72132;SDS011;60008;50.826;6.896;2023-09-12T01:35:48;8.93;;;4.57;;
72132;SDS011;60008;50.826;6.896;2023-09-12T01:38:40;7.70;;;4.55;;
72132;SDS011;60008;50.826;6.896;2023-09-12T01:41:34;12.50;;;4.70;;
72132;SDS011;60008;50.826;6.896;2023-09-12T01:44:22;9.70;;;4.88;;
72132;SDS011;60008;50.826;6.896;2023-09-12T01:47:16;11.98;;;5.07;;
72132;SDS011;60008;50.826;6.896;2023-09-12T01:50:09;11.30;;;5.33;;
72132;SDS011;60008;50.826;6.896;2023-09-12T01:52:57;8.35;;;5.22;;
72132;SDS011;60008;50.826;6.896;2023-09-12T01:55:50;12.27;;;5.80;;
72132;SDS011;60008;50.826;6.896;2023-09-12T01:58:42;13.10;;;5.40;;
72132;SDS011;60008;50.826;6.896;2023-09-12T02:01:28;13.77;;;6.20;;
72132;SDS011;60008;50.826;6.896;2023-09-12T02:04:25;12.47;;;6.70;;
72132;SDS011;60008;50.826;6.896;2023-09-12T02:07:11;11.55;;;5.72;;
72132;SDS011;60008;50.826;6.896;2023-09-12T02:10:02;10.82;;;5.60;;
72132;SDS011;60008;50.826;6.896;2023-09-12T02:12:49;14.07;;;6.13;;
72132;SDS011;60008;50.826;6.896;2023-09-12T02:15:41;15.15;;;6.32;;
72132;SDS011;60008;50.826;6.896;2023-09-12T02:18:28;10.50;;;5.57;;
72132;SDS011;60008;50.826;6.896;2023-09-12T02:21:20;8.20;;;5.35;;
72132;SDS011;60008;50.826;6.896;2023-09-12T02:24:05;10.20;;;5.93;;
72132;SDS011;60008;50.826;6.896;2023-09-12T02:26:57;12.48;;;6.05;;
72132;SDS011;60008;50.826;6.896;2023-09-12T02:29:42;11.93;;;5.85;;
72132;SDS011;60008;50.826;6.896;2023-09-12T02:32:34;14.97;;;6.37;;
72132;SDS011;60008;50.826;6.896;2023-09-12T02:35:19;14.60;;;6.03;;
72132;SDS011;60008;50.826;6.896;2023-09-12T02:38:11;11.68;;;6.60;;
72132;SDS011;60008;50.826;6.896;2023-09-12T02:40:57;12.55;;;6.40;;
72132;SDS011;60008;50.826;6.896;2023-09-12T02:43:48;14.45;;;6.80;;
72132;SDS011;60008;50.826;6.896;2023-09-12T02:46:34;17.47;;;6.80;;
72132;SDS011;60008;50.826;6.896;2023-09-12T02:49:25;15.73;;;7.13;;
72132;SDS011;60008;50.826;6.896;2023-09-12T02:52:10;16.40;;;7.07;;
72132;SDS011;60008;50.826;6.896;2023-09-12T02:55:01;12.45;;;7.20;;
72132;SDS011;60008;50.826;6.896;2023-09-12T02:57:47;15.48;;;6.90;;
72132;SDS011;60008;50.826;6.896;2023-09-12T03:00:39;15.57;;;7.20;;
72132;SDS011;60008;50.826;6.896;2023-09-12T03:03:32;19.58;;;8.15;;
72132;SDS011;60008;50.826;6.896;2023-09-12T03:06:24;14.95;;;7.97;;
72132;SDS011;60008;50.826;6.896;2023-09-12T03:09:09;16.08;;;7.97;;
72132;SDS011;60008;50.826;6.896;2023-09-12T03:12:02;14.32;;;7.78;;
72132;SDS011;60008;50.826;6.896;2023-09-12T03:14:49;18.53;;;8.27;;
72132;SDS011;60008;50.826;6.896;2023-09-12T03:17:40;15.45;;;7.88;;
72132;SDS011;60008;50.826;6.896;2023-09-12T03:20:25;13.80;;;7.90;;
72132;SDS011;60008;50.826;6.896;2023-09-12T03:23:18;18.98;;;7.20;;
72132;SDS011;60008;50.826;6.896;2023-09-12T03:26:04;13.10;;;7.68;;
72132;SDS011;60008;50.826;6.896;2023-09-12T03:28:57;12.53;;;7.10;;
72132;SDS011;60008;50.826;6.896;2023-09-12T03:31:49;14.18;;;7.13;;
72132;SDS011;60008;50.826;6.896;2023-09-12T03:34:41;13.13;;;6.80;;
72132;SDS011;60008;50.826;6.896;2023-09-12T03:37:26;13.80;;;6.93;;
72132;SDS011;60008;50.826;6.896;2023-09-12T03:40:19;17.35;;;7.18;;
72132;SDS011;60008;50.826;6.896;2023-09-12T03:43:05;14.37;;;7.40;;
72132;SDS011;60008;50.826;6.896;2023-09-12T03:45:56;11.55;;;7.13;;
72132;SDS011;60008;50.826;6.896;2023-09-12T03:48:41;14.05;;;7.28;;
72132;SDS011;60008;50.826;6.896;2023-09-12T03:51:33;13.50;;;7.13;;
72132;SDS011;60008;50.826;6.896;2023-09-12T03:54:19;12.85;;;6.63;;
72132;SDS011;60008;50.826;6.896;2023-09-12T03:57:11;10.73;;;6.33;;
72132;SDS011;60008;50.826;6.896;2023-09-12T03:59:57;14.43;;;6.55;;
72132;SDS011;60008;50.826;6.896;2023-09-12T04:02:48;15.05;;;6.93;;
72132;SDS011;60008;50.826;6.896;2023-09-12T04:05:54;12.00;;;6.05;;
72132;SDS011;60008;50.826;6.896;2023-09-12T04:08:39;15.68;;;7.38;;
72132;SDS011;60008;50.826;6.896;2023-09-12T04:11:31;13.67;;;6.67;;
72132;SDS011;60008;50.826;6.896;2023-09-12T04:14:31;12.23;;;6.22;;
72132;SDS011;60008;50.826;6.896;2023-09-12T04:17:16;15.20;;;6.80;;
72132;SDS011;60008;50.826;6.896;2023-09-12T04:20:07;13.20;;;6.63;;
72132;SDS011;60008;50.826;6.896;2023-09-12T04:23:00;15.18;;;6.70;;
72132;SDS011;60008;50.826;6.896;2023-09-12T04:25:47;14.80;;;6.70;;
72132;SDS011;60008;50.826;6.896;2023-09-12T04:28:38;13.05;;;6.95;;
72132;SDS011;60008;50.826;6.896;2023-09-12T04:31:30;12.50;;;6.13;;
72132;SDS011;60008;50.826;6.896;2023-09-12T04:34:15;12.13;;;6.18;;
72132;SDS011;60008;50.826;6.896;2023-09-12T04:37:08;14.57;;;6.03;;
72132;SDS011;60008;50.826;6.896;2023-09-12T04:39:59;11.07;;;6.20;;
72132;SDS011;60008;50.826;6.896;2023-09-12T04:42:44;14.13;;;6.55;;
72132;SDS011;60008;50.826;6.896;2023-09-12T04:45:36;12.95;;;6.40;;
72132;SDS011;60008;50.826;6.896;2023-09-12T04:48:24;12.77;;;6.28;;
72132;SDS011;60008;50.826;6.896;2023-09-12T04:51:19;12.23;;;6.53;;
72132;SDS011;60008;50.826;6.896;2023-09-12T04:54:11;15.80;;;7.13;;
72132;SDS011;60008;50.826;6.896;2023-09-12T04:56:57;14.07;;;6.55;;
72132;SDS011;60008;50.826;6.896;2023-09-12T04:59:48;12.25;;;6.85;;
72132;SDS011;60008;50.826;6.896;2023-09-12T05:02:33;12.93;;;6.50;;
72132;SDS011;60008;50.826;6.896;2023-09-12T05:05:26;11.95;;;6.78;;
72132;SDS011;60008;50.826;6.896;2023-09-12T05:08:17;13.43;;;7.10;;
72132;SDS011;60008;50.826;6.896;2023-09-12T05:11:09;12.63;;;6.72;;
72132;SDS011;60008;50.826;6.896;2023-09-12T05:13:54;11.55;;;5.80;;
72132;SDS011;60008;50.826;6.896;2023-09-12T05:16:46;12.93;;;5.82;;
72132;SDS011;60008;50.826;6.896;2023-09-12T05:19:40;10.13;;;6.00;;
72132;SDS011;60008;50.826;6.896;2023-09-12T05:22:25;12.43;;;5.87;;
72132;SDS011;60008;50.826;6.896;2023-09-12T05:25:18;13.30;;;6.30;;
72132;SDS011;60008;50.826;6.896;2023-09-12T05:28:04;13.80;;;6.95;;
72132;SDS011;60008;50.826;6.896;2023-09-12T05:30:56;14.80;;;7.05;;
72132;SDS011;60008;50.826;6.896;2023-09-12T05:33:42;16.70;;;7.30;;
72132;SDS011;60008;50.826;6.896;2023-09-12T05:36:33;19.93;;;8.03;;
72132;SDS011;60008;50.826;6.896;2023-09-12T05:39:18;15.77;;;7.60;;
72132;SDS011;60008;50.826;6.896;2023-09-12T05:42:10;19.40;;;7.90;;
72132;SDS011;60008;50.826;6.896;2023-09-12T05:44:56;14.38;;;7.57;;
72132;SDS011;60008;50.826;6.896;2023-09-12T05:47:48;15.68;;;8.02;;
72132;SDS011;60008;50.826;6.896;2023-09-12T05:50:36;15.93;;;7.90;;
72132;SDS011;60008;50.826;6.896;2023-09-12T05:53:28;16.73;;;8.13;;
72132;SDS011;60008;50.826;6.896;2023-09-12T05:56:20;17.98;;;8.30;;
72132;SDS011;60008;50.826;6.896;2023-09-12T05:59:06;16.75;;;8.05;;
72132;SDS011;60008;50.826;6.896;2023-09-12T06:01:57;17.35;;;8.75;;
72132;SDS011;60008;50.826;6.896;2023-09-12T06:04:49;19.63;;;8.77;;
72132;SDS011;60008;50.826;6.896;2023-09-12T06:07:41;17.83;;;8.02;;
72132;SDS011;60008;50.826;6.896;2023-09-12T06:10:28;18.40;;;8.40;;
72132;SDS011;60008;50.826;6.896;2023-09-12T06:13:20;16.67;;;7.40;;
72132;SDS011;60008;50.826;6.896;2023-09-12T06:16:06;13.70;;;6.82;;
72132;SDS011;60008;50.826;6.896;2023-09-12T06:18:57;15.53;;;6.90;;
72132;SDS011;60008;50.826;6.896;2023-09-12T06:21:42;12.52;;;5.82;;
72132;SDS011;60008;50.826;6.896;2023-09-12T06:24:34;10.90;;;5.90;;
72132;SDS011;60008;50.826;6.896;2023-09-12T06:27:26;12.23;;;5.68;;
72132;SDS011;60008;50.826;6.896;2023-09-12T06:30:17;12.02;;;5.53;;
72132;SDS011;60008;50.826;6.896;2023-09-12T06:33:03;11.83;;;5.40;;
72132;SDS011;60008;50.826;6.896;2023-09-12T06:35:56;13.95;;;5.30;;
72132;SDS011;60008;50.826;6.896;2023-09-12T06:38:41;9.27;;;4.60;;
72132;SDS011;60008;50.826;6.896;2023-09-12T06:41:32;11.48;;;4.82;;
72132;SDS011;60008;50.826;6.896;2023-09-12T06:44:23;8.25;;;4.68;;
72132;SDS011;60008;50.826;6.896;2023-09-12T06:47:15;11.00;;;4.37;;
72132;SDS011;60008;50.826;6.896;2023-09-12T06:50:07;10.25;;;4.63;;
72132;SDS011;60008;50.826;6.896;2023-09-12T06:53:00;7.57;;;3.80;;
72132;SDS011;60008;50.826;6.896;2023-09-12T06:55:46;9.45;;;4.03;;
72132;SDS011;60008;50.826;6.896;2023-09-12T06:58:37;13.05;;;6.30;;
72132;SDS011;60008;50.826;6.896;2023-09-12T07:01:30;8.73;;;5.60;;
72132;SDS011;60008;50.826;6.896;2023-09-12T07:04:22;9.77;;;4.95;;
72132;SDS011;60008;50.826;6.896;2023-09-12T07:07:14;12.93;;;5.30;;
72132;SDS011;60008;50.826;6.896;2023-09-12T07:10:06;11.98;;;5.40;;
72132;SDS011;60008;50.826;6.896;2023-09-12T07:13:08;12.45;;;6.07;;
72132;SDS011;60008;50.826;6.896;2023-09-12T07:15:59;12.93;;;5.43;;
72132;SDS011;60008;50.826;6.896;2023-09-12T07:18:54;11.95;;;6.05;;
72132;SDS011;60008;50.826;6.896;2023-09-12T07:21:46;18.50;;;7.30;;
72132;SDS011;60008;50.826;6.896;2023-09-12T07:24:34;14.02;;;7.07;;
72132;SDS011;60008;50.826;6.896;2023-09-12T07:27:25;17.88;;;7.25;;
72132;SDS011;60008;50.826;6.896;2023-09-12T07:30:10;14.20;;;7.23;;
72132;SDS011;60008;50.826;6.896;2023-09-12T07:33:03;14.18;;;6.10;;
72132;SDS011;60008;50.826;6.896;2023-09-12T07:35:55;15.13;;;6.97;;
72132;SDS011;60008;50.826;6.896;2023-09-12T07:38:46;12.60;;;6.43;;
72132;SDS011;60008;50.826;6.896;2023-09-12T07:41:33;10.63;;;6.38;;
72132;SDS011;60008;50.826;6.896;2023-09-12T07:44:24;12.83;;;6.00;;
72132;SDS011;60008;50.826;6.896;2023-09-12T07:47:17;9.98;;;5.40;;
72132;SDS011;60008;50.826;6.896;2023-09-12T07:50:02;14.48;;;6.13;;
72132;SDS011;60008;50.826;6.896;2023-09-12T07:52:56;13.80;;;6.75;;
72132;SDS011;60008;50.826;6.896;2023-09-12T07:55:48;12.82;;;6.10;;
72132;SDS011;60008;50.826;6.896;2023-09-12T07:58:40;13.63;;;5.93;;
72132;SDS011;60008;50.826;6.896;2023-09-12T08:01:28;10.10;;;5.55;;
72132;SDS011;60008;50.826;6.896;2023-09-12T08:04:20;12.73;;;5.82;;
72132;SDS011;60008;50.826;6.896;2023-09-12T08:07:12;9.82;;;5.30;;
72132;SDS011;60008;50.826;6.896;2023-09-12T08:09:59;9.55;;;5.93;;
72132;SDS011;60008;50.826;6.896;2023-09-12T08:12:53;10.60;;;5.60;;
72132;SDS011;60008;50.826;6.896;2023-09-12T08:15:38;14.63;;;6.10;;
72132;SDS011;60008;50.826;6.896;2023-09-12T08:18:30;13.85;;;5.88;;
72132;SDS011;60008;50.826;6.896;2023-09-12T08:21:16;11.52;;;5.70;;
72132;SDS011;60008;50.826;6.896;2023-09-12T08:24:07;13.45;;;6.32;;
72132;SDS011;60008;50.826;6.896;2023-09-12T08:26:55;12.77;;;6.00;;
72132;SDS011;60008;50.826;6.896;2023-09-12T08:29:47;12.52;;;6.07;;
72132;SDS011;60008;50.826;6.896;2023-09-12T08:32:33;11.48;;;5.63;;
72132;SDS011;60008;50.826;6.896;2023-09-12T08:35:24;11.68;;;5.95;;
72132;SDS011;60008;50.826;6.896;2023-09-12T08:38:11;9.88;;;5.68;;
72132;SDS011;60008;50.826;6.896;2023-09-12T08:41:03;11.73;;;5.47;;
72132;SDS011;60008;50.826;6.896;2023-09-12T08:43:50;12.63;;;6.78;;
72132;SDS011;60008;50.826;6.896;2023-09-12T08:46:42;11.90;;;6.18;;
72132;SDS011;60008;50.826;6.896;2023-09-12T08:49:27;16.42;;;6.97;;
72132;SDS011;60008;50.826;6.896;2023-09-12T08:52:21;12.15;;;6.97;;
72132;SDS011;60008;50.826;6.896;2023-09-12T08:55:06;14.23;;;7.30;;
72132;SDS011;60008;50.826;6.896;2023-09-12T08:57:58;12.82;;;6.43;;
72132;SDS011;60008;50.826;6.896;2023-09-12T09:00:47;11.45;;;6.00;;
72132;SDS011;60008;50.826;6.896;2023-09-12T09:03:45;13.57;;;6.38;;
72132;SDS011;60008;50.826;6.896;2023-09-12T09:06:33;10.98;;;5.95;;
72132;SDS011;60008;50.826;6.896;2023-09-12T09:09:28;12.47;;;6.43;;
72132;SDS011;60008;50.826;6.896;2023-09-12T09:12:13;11.30;;;6.07;;
72132;SDS011;60008;50.826;6.896;2023-09-12T09:15:24;9.43;;;6.03;;
72132;SDS011;60008;50.826;6.896;2023-09-12T09:18:19;9.45;;;6.18;;
72132;SDS011;60008;50.826;6.896;2023-09-12T09:21:16;11.05;;;6.68;;
72132;SDS011;60008;50.826;6.896;2023-09-12T09:24:12;12.13;;;5.47;;
72132;SDS011;60008;50.826;6.896;2023-09-12T09:27:07;10.27;;;6.22;;
72132;SDS011;60008;50.826;6.896;2023-09-12T09:29:58;9.10;;;6.40;;
72132;SDS011;60008;50.826;6.896;2023-09-12T09:32:43;10.48;;;5.68;;
72132;SDS011;60008;50.826;6.896;2023-09-12T09:35:40;13.32;;;5.82;;
72132;SDS011;60008;50.826;6.896;2023-09-12T09:38:26;14.80;;;5.87;;
72132;SDS011;60008;50.826;6.896;2023-09-12T09:41:22;12.15;;;5.93;;
72132;SDS011;60008;50.826;6.896;2023-09-12T09:44:08;12.57;;;6.55;;
72132;SDS011;60008;50.826;6.896;2023-09-12T09:47:00;11.13;;;6.50;;
72132;SDS011;60008;50.826;6.896;2023-09-12T09:49:51;11.07;;;7.70;;
72132;SDS011;60008;50.826;6.896;2023-09-12T09:52:43;12.53;;;7.20;;
72132;SDS011;60008;50.826;6.896;2023-09-12T09:55:29;13.10;;;7.40;;
72132;SDS011;60008;50.826;6.896;2023-09-12T09:58:20;14.30;;;7.80;;
72132;SDS011;60008;50.826;6.896;2023-09-12T10:01:18;11.27;;;6.50;;
72132;SDS011;60008;50.826;6.896;2023-09-12T10:04:13;11.30;;;6.65;;
72132;SDS011;60008;50.826;6.896;2023-09-12T10:07:15;9.17;;;5.73;;
72132;SDS011;60008;50.826;6.896;2023-09-12T10:10:08;8.48;;;5.82;;
72132;SDS011;60008;50.826;6.896;2023-09-12T10:13:02;10.00;;;6.18;;
72132;SDS011;60008;50.826;6.896;2023-09-12T10:15:48;12.00;;;5.95;;
72132;SDS011;60008;50.826;6.896;2023-09-12T10:18:42;7.88;;;5.78;;
72132;SDS011;60008;50.826;6.896;2023-09-12T10:21:37;9.43;;;5.67;;
72132;SDS011;60008;50.826;6.896;2023-09-12T10:24:37;9.82;;;5.25;;
72132;SDS011;60008;50.826;6.896;2023-09-12T10:27:24;11.05;;;5.38;;
72132;SDS011;60008;50.826;6.896;2023-09-12T10:30:16;17.25;;;5.20;;
72132;SDS011;60008;50.826;6.896;2023-09-12T10:33:03;7.57;;;4.78;;
72132;SDS011;60008;50.826;6.896;2023-09-12T10:35:59;7.90;;;5.17;;
72132;SDS011;60008;50.826;6.896;2023-09-12T10:38:50;8.32;;;5.03;;
72132;SDS011;60008;50.826;6.896;2023-09-12T10:41:42;7.78;;;5.43;;
72132;SDS011;60008;50.826;6.896;2023-09-12T10:44:27;8.07;;;5.07;;
72132;SDS011;60008;50.826;6.896;2023-09-12T10:47:19;8.93;;;4.93;;
72132;SDS011;60008;50.826;6.896;2023-09-12T10:50:07;8.40;;;5.30;;
72132;SDS011;60008;50.826;6.896;2023-09-12T10:53:13;9.88;;;5.72;;
72132;SDS011;60008;50.826;6.896;2023-09-12T11:08:25;8.25;;;5.15;;
72132;SDS011;60008;50.826;6.896;2023-09-12T11:11:19;8.82;;;5.40;;
72132;SDS011;60008;50.826;6.896;2023-09-12T11:14:11;9.02;;;5.68;;
72132;SDS011;60008;50.826;6.896;2023-09-12T11:19:58;6.63;;;5.03;;
72132;SDS011;60008;50.826;6.896;2023-09-12T11:22:53;9.90;;;4.45;;
72132;SDS011;60008;50.826;6.896;2023-09-12T11:26:02;7.72;;;4.68;;
72132;SDS011;60008;50.826;6.896;2023-09-12T11:28:51;8.18;;;3.92;;
72132;SDS011;60008;50.826;6.896;2023-09-12T11:31:51;10.20;;;4.90;;
72132;SDS011;60008;50.826;6.896;2023-09-12T11:34:43;7.73;;;4.27;;
72132;SDS011;60008;50.826;6.896;2023-09-12T11:37:35;7.13;;;4.00;;
72132;SDS011;60008;50.826;6.896;2023-09-12T11:40:41;6.57;;;3.95;;
72132;SDS011;60008;50.826;6.896;2023-09-12T11:43:29;9.38;;;4.40;;
72132;SDS011;60008;50.826;6.896;2023-09-12T11:46:22;12.10;;;4.70;;
72132;SDS011;60008;50.826;6.896;2023-09-12T11:49:07;8.83;;;4.40;;
72132;SDS011;60008;50.826;6.896;2023-09-12T11:51:59;7.60;;;4.50;;
72132;SDS011;60008;50.826;6.896;2023-09-12T11:54:44;6.78;;;4.47;;
72132;SDS011;60008;50.826;6.896;2023-09-12T11:57:36;7.90;;;4.50;;
72132;SDS011;60008;50.826;6.896;2023-09-12T12:00:21;13.90;;;4.10;;
72132;SDS011;60008;50.826;6.896;2023-09-12T12:03:22;6.83;;;3.70;;
72132;SDS011;60008;50.826;6.896;2023-09-12T12:06:21;8.20;;;3.70;;
72132;SDS011;60008;50.826;6.896;2023-09-12T12:09:13;6.47;;;3.83;;
72132;SDS011;60008;50.826;6.896;2023-09-12T12:12:14;5.97;;;3.28;;
72132;SDS011;60008;50.826;6.896;2023-09-12T12:15:09;6.63;;;4.28;;
72132;SDS011;60008;50.826;6.896;2023-09-12T12:17:56;7.67;;;4.67;;
72132;SDS011;60008;50.826;6.896;2023-09-12T12:20:47;6.00;;;3.65;;
72132;SDS011;60008;50.826;6.896;2023-09-12T12:23:32;6.50;;;3.78;;
72132;SDS011;60008;50.826;6.896;2023-09-12T12:26:24;10.05;;;3.92;;
72132;SDS011;60008;50.826;6.896;2023-09-12T12:29:09;7.25;;;4.72;;
72132;SDS011;60008;50.826;6.896;2023-09-12T12:32:05;9.77;;;4.50;;
72132;SDS011;60008;50.826;6.896;2023-09-12T12:34:51;8.82;;;3.50;;
72132;SDS011;60008;50.826;6.896;2023-09-12T12:38:02;7.35;;;3.38;;
72132;SDS011;60008;50.826;6.896;2023-09-12T12:40:52;6.10;;;3.50;;
72132;SDS011;60008;50.826;6.896;2023-09-12T12:43:43;6.00;;;3.78;;
72132;SDS011;60008;50.826;6.896;2023-09-12T12:46:34;6.03;;;3.23;;
72132;SDS011;60008;50.826;6.896;2023-09-12T12:49:39;5.97;;;3.28;;
72132;SDS011;60008;50.826;6.896;2023-09-12T12:52:31;8.25;;;3.47;;
72132;SDS011;60008;50.826;6.896;2023-09-12T12:55:25;5.95;;;3.30;;
72132;SDS011;60008;50.826;6.896;2023-09-12T12:58:17;7.72;;;4.85;;
72132;SDS011;60008;50.826;6.896;2023-09-12T13:01:02;5.53;;;3.37;;
72132;SDS011;60008;50.826;6.896;2023-09-12T13:04:01;6.65;;;3.38;;
72132;SDS011;60008;50.826;6.896;2023-09-12T13:06:59;6.70;;;3.60;;
72132;SDS011;60008;50.826;6.896;2023-09-12T13:09:51;9.40;;;4.03;;
72132;SDS011;60008;50.826;6.896;2023-09-12T13:12:36;7.50;;;4.65;;
72132;SDS011;60008;50.826;6.896;2023-09-12T13:15:28;9.00;;;3.47;;
72132;SDS011;60008;50.826;6.896;2023-09-12T13:18:14;5.55;;;3.17;;
72132;SDS011;60008;50.826;6.896;2023-09-12T13:21:06;5.82;;;3.42;;
72132;SDS011;60008;50.826;6.896;2023-09-12T13:23:51;6.07;;;3.17;;
72132;SDS011;60008;50.826;6.896;2023-09-12T13:26:46;7.47;;;3.17;;
72132;SDS011;60008;50.826;6.896;2023-09-12T13:29:37;5.70;;;3.30;;
72132;SDS011;60008;50.826;6.896;2023-09-12T13:32:28;7.45;;;3.40;;
72132;SDS011;60008;50.826;6.896;2023-09-12T13:35:21;8.43;;;3.95;;
72132;SDS011;60008;50.826;6.896;2023-09-12T13:38:13;5.95;;;3.33;;
72132;SDS011;60008;50.826;6.896;2023-09-12T13:40:58;6.75;;;3.45;;
72132;SDS011;60008;50.826;6.896;2023-09-12T13:43:50;7.50;;;3.40;;
72132;SDS011;60008;50.826;6.896;2023-09-12T13:46:36;5.60;;;3.08;;
72132;SDS011;60008;50.826;6.896;2023-09-12T13:49:28;6.00;;;3.33;;
72132;SDS011;60008;50.826;6.896;2023-09-12T13:52:22;9.48;;;3.28;;
72132;SDS011;60008;50.826;6.896;2023-09-12T13:55:18;5.03;;;3.60;;
72132;SDS011;60008;50.826;6.896;2023-09-12T13:58:31;6.13;;;3.30;;
72132;SDS011;60008;50.826;6.896;2023-09-12T14:01:31;6.45;;;3.50;;
72132;SDS011;60008;50.826;6.896;2023-09-12T14:04:19;6.40;;;3.40;;
72132;SDS011;60008;50.826;6.896;2023-09-12T14:07:22;5.22;;;3.30;;
72132;SDS011;60008;50.826;6.896;2023-09-12T14:10:13;6.82;;;3.83;;
72132;SDS011;60008;50.826;6.896;2023-09-12T14:13:15;6.03;;;3.70;;
72132;SDS011;60008;50.826;6.896;2023-09-12T14:16:08;5.85;;;3.08;;
72132;SDS011;60008;50.826;6.896;2023-09-12T14:18:53;5.35;;;3.13;;
72132;SDS011;60008;50.826;6.896;2023-09-12T14:21:46;4.68;;;3.10;;
72132;SDS011;60008;50.826;6.896;2023-09-12T14:24:33;5.32;;;3.30;;
72132;SDS011;60008;50.826;6.896;2023-09-12T14:27:25;6.20;;;2.93;;
72132;SDS011;60008;50.826;6.896;2023-09-12T14:30:11;5.50;;;3.20;;
72132;SDS011;60008;50.826;6.896;2023-09-12T14:33:04;7.30;;;3.80;;
72132;SDS011;60008;50.826;6.896;2023-09-12T14:36:00;8.20;;;4.05;;
72132;SDS011;60008;50.826;6.896;2023-09-12T14:38:49;5.47;;;3.38;;
72132;SDS011;60008;50.826;6.896;2023-09-12T14:41:41;5.33;;;3.17;;
72132;SDS011;60008;50.826;6.896;2023-09-12T14:44:29;7.13;;;3.08;;
72132;SDS011;60008;50.826;6.896;2023-09-12T14:47:24;6.50;;;3.42;;
72132;SDS011;60008;50.826;6.896;2023-09-12T14:50:11;7.72;;;4.45;;
72132;SDS011;60008;50.826;6.896;2023-09-12T14:53:07;7.60;;;4.30;;
72132;SDS011;60008;50.826;6.896;2023-09-12T14:55:59;4.70;;;2.90;;
72132;SDS011;60008;50.826;6.896;2023-09-12T14:58:51;6.65;;;3.20;;
72132;SDS011;60008;50.826;6.896;2023-09-12T15:01:42;5.70;;;3.60;;
72132;SDS011;60008;50.826;6.896;2023-09-12T15:04:28;6.35;;;3.30;;
72132;SDS011;60008;50.826;6.896;2023-09-12T15:07:20;8.43;;;3.00;;
72132;SDS011;60008;50.826;6.896;2023-09-12T15:10:19;5.13;;;3.30;;
72132;SDS011;60008;50.826;6.896;2023-09-12T15:13:10;4.90;;;2.87;;
72132;SDS011;60008;50.826;6.896;2023-09-12T15:15:56;5.82;;;3.03;;
72132;SDS011;60008;50.826;6.896;2023-09-12T15:18:49;5.72;;;3.25;;
72132;SDS011;60008;50.826;6.896;2023-09-12T15:21:35;7.07;;;3.80;;
72132;SDS011;60008;50.826;6.896;2023-09-12T15:24:28;5.60;;;3.08;;
72132;SDS011;60008;50.826;6.896;2023-09-12T15:27:19;4.80;;;3.00;;
72132;SDS011;60008;50.826;6.896;2023-09-12T15:30:05;10.57;;;4.18;;
72132;SDS011;60008;50.826;6.896;2023-09-12T15:32:58;7.68;;;3.40;;
72132;SDS011;60008;50.826;6.896;2023-09-12T15:35:49;6.82;;;3.20;;
72132;SDS011;60008;50.826;6.896;2023-09-12T15:38:40;5.60;;;3.30;;
72132;SDS011;60008;50.826;6.896;2023-09-12T15:41:26;8.10;;;4.03;;
72132;SDS011;60008;50.826;6.896;2023-09-12T15:44:18;10.05;;;4.30;;
72132;SDS011;60008;50.826;6.896;2023-09-12T15:47:07;10.48;;;4.80;;
72132;SDS011;60008;50.826;6.896;2023-09-12T15:50:05;7.60;;;3.70;;
72132;SDS011;60008;50.826;6.896;2023-09-12T15:52:50;6.38;;;3.40;;
72132;SDS011;60008;50.826;6.896;2023-09-12T15:55:41;7.73;;;3.60;;
72132;SDS011;60008;50.826;6.896;2023-09-12T15:58:26;10.95;;;3.58;;
72132;SDS011;60008;50.826;6.896;2023-09-12T16:01:20;6.13;;;3.72;;
72132;SDS011;60008;50.826;6.896;2023-09-12T16:04:05;10.32;;;5.05;;
72132;SDS011;60008;50.826;6.896;2023-09-12T16:07:07;8.77;;;5.40;;
72132;SDS011;60008;50.826;6.896;2023-09-12T16:09:52;10.27;;;5.20;;
72132;SDS011;60008;50.826;6.896;2023-09-12T16:12:44;11.07;;;5.80;;
72132;SDS011;60008;50.826;6.896;2023-09-12T16:15:29;11.40;;;6.00;;
72132;SDS011;60008;50.826;6.896;2023-09-12T16:18:20;7.70;;;5.00;;
72132;SDS011;60008;50.826;6.896;2023-09-12T16:21:06;6.82;;;4.28;;
72132;SDS011;60008;50.826;6.896;2023-09-12T16:24:02;7.10;;;4.40;;
72132;SDS011;60008;50.826;6.896;2023-09-12T16:26:53;6.35;;;4.18;;
72132;SDS011;60008;50.826;6.896;2023-09-12T16:29:46;8.18;;;3.90;;
72132;SDS011;60008;50.826;6.896;2023-09-12T16:32:31;6.85;;;3.70;;
72132;SDS011;60008;50.826;6.896;2023-09-12T16:35:23;5.78;;;3.63;;
72132;SDS011;60008;50.826;6.896;2023-09-12T16:38:09;9.07;;;4.10;;
72132;SDS011;60008;50.826;6.896;2023-09-12T16:41:02;9.40;;;4.70;;
72132;SDS011;60008;50.826;6.896;2023-09-12T16:43:47;7.88;;;4.80;;
72132;SDS011;60008;50.826;6.896;2023-09-12T16:46:39;10.02;;;5.03;;
72132;SDS011;60008;50.826;6.896;2023-09-12T16:49:31;9.13;;;5.18;;
72132;SDS011;60008;50.826;6.896;2023-09-12T16:52:24;11.60;;;6.33;;
72132;SDS011;60008;50.826;6.896;2023-09-12T16:55:10;15.57;;;7.75;;
72132;SDS011;60008;50.826;6.896;2023-09-12T16:58:03;9.85;;;6.03;;
72132;SDS011;60008;50.826;6.896;2023-09-12T17:00:55;12.93;;;5.85;;
72132;SDS011;60008;50.826;6.896;2023-09-12T17:03:41;11.52;;;6.05;;
72132;SDS011;60008;50.826;6.896;2023-09-12T17:06:35;10.80;;;5.53;;
72132;SDS011;60008;50.826;6.896;2023-09-12T17:09:34;11.85;;;6.15;;
72132;SDS011;60008;50.826;6.896;2023-09-12T17:12:19;14.20;;;6.22;;
72132;SDS011;60008;50.826;6.896;2023-09-12T17:15:10;11.75;;;5.80;;
72132;SDS011;60008;50.826;6.896;2023-09-12T17:17:56;13.57;;;6.43;;
72132;SDS011;60008;50.826;6.896;2023-09-12T17:20:48;9.27;;;6.23;;